Swift Ace — C6XB8 — position and weather

sailwx.info

Track history (hours):
 
Tides and Currents Weather Stations Pressure Air Temp Water Temp Dewpoint Dewpoint Depression Visibility Wind Speed Wind Dir Waves Ship Positions

Swift Ace

Last reported at 2016-Nov-30 16:25 UTC. Time now 2016-Dec-09 23:19 UTC.
Position N 34°59' E 139°39'.
Warning: this ship's position is 9 days out of date.

Length 200 m; draft 8.6 m.

Type: Cargo ship. MMSI: 310968322.

Date/timePositionNaut miles runAvg speedWind from/ knotsBaromVisibWave heightAir tempDewpointWater temp
2016-Nov-30 16:25N 34°59' E 139°39'1416.5
2016-Nov-30 15:33N 35°12' E 139°46'1212.1
2016-Nov-30 14:33N 35°23' E 139°42'4 4.1
2016-Nov-30 13:32N 35°27' E 139°41'0 0.0
2016-Nov-30 12:32N 35°27' E 139°41'0 0.0
2016-Nov-30 11:32N 35°27' E 139°41'0 0.0
2016-Nov-30 10:32N 35°27' E 139°41'0 0.0
2016-Nov-30 09:32N 35°27' E 139°41'0 0.0
2016-Nov-30 08:32N 35°27' E 139°41'0 0.0
2016-Nov-30 07:32N 35°27' E 139°41'0 0.0
2016-Nov-30 06:32N 35°27' E 139°41'0 0.0
2016-Nov-30 05:32N 35°27' E 139°41'0 0.0
2016-Nov-30 04:32N 35°27' E 139°41'0 0.0
2016-Nov-30 03:32N 35°27' E 139°41'0 0.0
2016-Nov-30 02:32N 35°27' E 139°41'0 0.0
2016-Nov-30 01:32N 35°27' E 139°41'0 0.0
2016-Nov-30 00:32N 35°27' E 139°41'0 0.0
2016-Nov-29 23:32N 35°27' E 139°41'0 0.0
2016-Nov-29 22:32N 35°27' E 139°41'0 0.0
2016-Nov-29 21:32N 35°27' E 139°41'0 0.0
2016-Nov-29 20:32N 35°27' E 139°41'0 0.0
2016-Nov-29 19:32N 35°27' E 139°41'0 0.0
2016-Nov-29 18:32N 35°27' E 139°41'0 0.0
2016-Nov-29 17:32N 35°27' E 139°41'0 0.0
2016-Nov-29 16:32N 35°27' E 139°41'0 0.0
2016-Nov-29 15:32N 35°27' E 139°41'0 0.0
2016-Nov-29 14:32N 35°27' E 139°41'0 0.0
2016-Nov-29 13:32N 35°27' E 139°41'0 0.0
2016-Nov-29 12:32N 35°27' E 139°41'0 0.0
2016-Nov-29 11:32N 35°27' E 139°41'0 0.0
2016-Nov-29 10:32N 35°27' E 139°41'0 0.0
2016-Nov-29 09:32N 35°27' E 139°41'0 0.0
2016-Nov-29 08:32N 35°27' E 139°41'0 0.0
2016-Nov-29 07:32N 35°27' E 139°41'0 0.0
2016-Nov-29 06:32N 35°27' E 139°41'0 0.0
2016-Nov-29 05:32N 35°27' E 139°41'0 0.0
2016-Nov-29 04:32N 35°27' E 139°41'0 0.0
2016-Nov-29 03:32N 35°27' E 139°41'0 0.0
2016-Nov-29 02:32N 35°27' E 139°41'0 0.0
2016-Nov-29 01:29N 35°27' E 139°41'0 0.1
2016-Nov-29 00:32N 35°27' E 139°41'0 0.0
2016-Nov-28 23:32N 35°27' E 139°41'0 0.0
2016-Nov-28 22:32N 35°27' E 139°41'3 2.8
2016-Nov-28 21:34N 35°25' E 139°43'1111.2
2016-Nov-28 20:34N 35°14' E 139°47'9 9.2
2016-Nov-28 19:34N 35°05' E 139°45'  
2016-Nov-25 10:33N 33°52' E 134°58'1919.1
2016-Nov-25 09:33N 34°11' E 134°58'1313.4
2016-Nov-25 08:33N 34°24' E 135°03'1818.0
2016-Nov-25 07:34N 34°37' E 135°17'4 3.6
2016-Nov-25 06:23N 34°42' E 135°17'0 0.0
2016-Nov-25 05:29N 34°42' E 135°17'0 0.0
2016-Nov-25 04:29N 34°42' E 135°17'0 0.0
2016-Nov-25 03:23N 34°42' E 135°17'0 0.0
2016-Nov-25 02:23N 34°42' E 135°17'0 0.0
2016-Nov-25 01:29N 34°42' E 135°17'0 0.0
2016-Nov-25 00:29N 34°42' E 135°17'0 0.0
2016-Nov-24 23:29N 34°42' E 135°17'1 0.9
2016-Nov-24 22:33N 34°41' E 135°18'7 6.7
2016-Nov-24 21:33N 34°35' E 135°14'9 9.1
2016-Nov-24 20:33N 34°36' E 135°03'  
2016-Nov-22 10:31N 34°58' E 139°40'1414.7
2016-Nov-22 09:33N 35°12' E 139°46'1212.2
2016-Nov-22 08:33N 35°23' E 139°42'1413.6
2016-Nov-22 07:33N 35°31' E 139°56'9 1.9
2016-Nov-22 02:30N 35°36' E 140°06'5 1.1
2016-Nov-21 21:33N 35°33' E 140°00'17 4.2
2016-Nov-21 17:33N 35°27' E 139°41'0 0.0
2016-Nov-21 14:33N 35°27' E 139°41'0 0.0
2016-Nov-21 13:33N 35°27' E 139°41'0 0.0
2016-Nov-21 12:33N 35°27' E 139°41'0 0.0
2016-Nov-21 11:33N 35°27' E 139°41'0 0.0
2016-Nov-21 10:33N 35°27' E 139°41'0 0.0
2016-Nov-21 08:33N 35°27' E 139°41'0 0.0
2016-Nov-21 07:33N 35°27' E 139°41'0 0.0
2016-Nov-21 05:33N 35°27' E 139°41'0 0.0
2016-Nov-21 04:33N 35°27' E 139°41'0 0.0
2016-Nov-21 02:33N 35°27' E 139°41'0 0.0
2016-Nov-21 00:33N 35°27' E 139°41'0 0.0
2016-Nov-20 22:33N 35°27' E 139°41'2 1.9
2016-Nov-20 21:33N 35°26' E 139°42'  
Track history (hours):
 
Tides and Currents Weather Stations Pressure Air Temp Water Temp Dewpoint Dewpoint Depression Visibility Wind Speed Wind Dir Waves Ship Positions

Swift Ace

Last reported at 2016-Nov-30 16:25 UTC. Time now 2016-Dec-09 23:19 UTC.
Position N 34°59' E 139°39'.
Warning: this ship's position is 9 days out of date.

Length 200 m; draft 8.6 m.

Type: Cargo ship. MMSI: 310968322.

Date/timePositionNaut miles runAvg speedWind from/ knotsBaromVisibWave heightAir tempDewpointWater temp
2016-Nov-30 16:25N 34°59' E 139°39'1416.5
2016-Nov-30 15:33N 35°12' E 139°46'1212.1
2016-Nov-30 14:33N 35°23' E 139°42'4 4.1
2016-Nov-30 13:32N 35°27' E 139°41'0 0.0
2016-Nov-30 12:32N 35°27' E 139°41'0 0.0
2016-Nov-30 11:32N 35°27' E 139°41'0 0.0
2016-Nov-30 10:32N 35°27' E 139°41'0 0.0
2016-Nov-30 09:32N 35°27' E 139°41'0 0.0
2016-Nov-30 08:32N 35°27' E 139°41'0 0.0
2016-Nov-30 07:32N 35°27' E 139°41'0 0.0
2016-Nov-30 06:32N 35°27' E 139°41'0 0.0
2016-Nov-30 05:32N 35°27' E 139°41'0 0.0
2016-Nov-30 04:32N 35°27' E 139°41'0 0.0
2016-Nov-30 03:32N 35°27' E 139°41'0 0.0
2016-Nov-30 02:32N 35°27' E 139°41'0 0.0
2016-Nov-30 01:32N 35°27' E 139°41'0 0.0
2016-Nov-30 00:32N 35°27' E 139°41'0 0.0
2016-Nov-29 23:32N 35°27' E 139°41'0 0.0
2016-Nov-29 22:32N 35°27' E 139°41'0 0.0
2016-Nov-29 21:32N 35°27' E 139°41'0 0.0
2016-Nov-29 20:32N 35°27' E 139°41'0 0.0
2016-Nov-29 19:32N 35°27' E 139°41'0 0.0
2016-Nov-29 18:32N 35°27' E 139°41'0 0.0
2016-Nov-29 17:32N 35°27' E 139°41'0 0.0
2016-Nov-29 16:32N 35°27' E 139°41'0 0.0
2016-Nov-29 15:32N 35°27' E 139°41'0 0.0
2016-Nov-29 14:32N 35°27' E 139°41'0 0.0
2016-Nov-29 13:32N 35°27' E 139°41'0 0.0
2016-Nov-29 12:32N 35°27' E 139°41'0 0.0
2016-Nov-29 11:32N 35°27' E 139°41'0 0.0
2016-Nov-29 10:32N 35°27' E 139°41'0 0.0
2016-Nov-29 09:32N 35°27' E 139°41'0 0.0
2016-Nov-29 08:32N 35°27' E 139°41'0 0.0
2016-Nov-29 07:32N 35°27' E 139°41'0 0.0
2016-Nov-29 06:32N 35°27' E 139°41'0 0.0
2016-Nov-29 05:32N 35°27' E 139°41'0 0.0
2016-Nov-29 04:32N 35°27' E 139°41'0 0.0
2016-Nov-29 03:32N 35°27' E 139°41'0 0.0
2016-Nov-29 02:32N 35°27' E 139°41'0 0.0
2016-Nov-29 01:29N 35°27' E 139°41'0 0.1
2016-Nov-29 00:32N 35°27' E 139°41'0 0.0
2016-Nov-28 23:32N 35°27' E 139°41'0 0.0
2016-Nov-28 22:32N 35°27' E 139°41'3 2.8
2016-Nov-28 21:34N 35°25' E 139°43'1111.2
2016-Nov-28 20:34N 35°14' E 139°47'9 9.2
2016-Nov-28 19:34N 35°05' E 139°45'  
2016-Nov-25 10:33N 33°52' E 134°58'1919.1
2016-Nov-25 09:33N 34°11' E 134°58'1313.4
2016-Nov-25 08:33N 34°24' E 135°03'1818.0
2016-Nov-25 07:34N 34°37' E 135°17'4 3.6
2016-Nov-25 06:23N 34°42' E 135°17'0 0.0
2016-Nov-25 05:29N 34°42' E 135°17'0 0.0
2016-Nov-25 04:29N 34°42' E 135°17'0 0.0
2016-Nov-25 03:23N 34°42' E 135°17'0 0.0
2016-Nov-25 02:23N 34°42' E 135°17'0 0.0
2016-Nov-25 01:29N 34°42' E 135°17'0 0.0
2016-Nov-25 00:29N 34°42' E 135°17'0 0.0
2016-Nov-24 23:29N 34°42' E 135°17'1 0.9
2016-Nov-24 22:33N 34°41' E 135°18'7 6.7
2016-Nov-24 21:33N 34°35' E 135°14'9 9.1
2016-Nov-24 20:33N 34°36' E 135°03'  
2016-Nov-22 10:31N 34°58' E 139°40'1414.7
2016-Nov-22 09:33N 35°12' E 139°46'1212.2
2016-Nov-22 08:33N 35°23' E 139°42'1413.6
2016-Nov-22 07:33N 35°31' E 139°56'9 1.9
2016-Nov-22 02:30N 35°36' E 140°06'5 1.1
2016-Nov-21 21:33N 35°33' E 140°00'17 4.2
2016-Nov-21 17:33N 35°27' E 139°41'0 0.0
2016-Nov-21 14:33N 35°27' E 139°41'0 0.0
2016-Nov-21 13:33N 35°27' E 139°41'0 0.0
2016-Nov-21 12:33N 35°27' E 139°41'0 0.0
2016-Nov-21 11:33N 35°27' E 139°41'0 0.0
2016-Nov-21 10:33N 35°27' E 139°41'0 0.0
2016-Nov-21 08:33N 35°27' E 139°41'0 0.0
2016-Nov-21 07:33N 35°27' E 139°41'0 0.0
2016-Nov-21 05:33N 35°27' E 139°41'0 0.0
2016-Nov-21 04:33N 35°27' E 139°41'0 0.0
2016-Nov-21 02:33N 35°27' E 139°41'0 0.0
2016-Nov-21 00:33N 35°27' E 139°41'0 0.0
2016-Nov-20 22:33N 35°27' E 139°41'2 1.9
2016-Nov-20 21:33N 35°26' E 139°42'  

Dump ship's entire track history